This is the latest recevied weather packets stored in our database for station/object SR2ATJ-13. If no packets are shown the sender has not sent any weather packets the latest 10 day(s).
| Time | Temp. | Humidity | Pressure | Rain* | Wind** | Luminosity | Snow |
|---|---|---|---|---|---|---|---|
| 1777971303 | 17.22° C | 73% | 1009.6 hPa | - | - | - | - |
| 1777970703 | 17.22° C | 72% | 1009.7 hPa | - | - | - | - |
| 1777969504 | 17.22° C | 72% | 1009.8 hPa | - | - | - | - |
| 1777968903 | 17.78° C | 71% | 1009.9 hPa | - | - | - | - |
| 1777967103 | 16.67° C | 76% | 1010.1 hPa | - | - | - | - |
| 1777966503 | 16.11° C | 77% | 1010.2 hPa | - | - | - | - |
| 1777965903 | 16.11° C | 77% | 1010.2 hPa | - | - | - | - |
| 1777965303 | 16.11° C | 78% | 1010.2 hPa | - | - | - | - |
| 1777964702 | 16.11° C | 80% | 1010.2 hPa | - | - | - | - |
| 1777964103 | 15.56° C | 83% | 1010.4 hPa | - | - | - | - |
| 1777963502 | 15° C | 85% | 1010.4 hPa | - | - | - | - |
| 1777962902 | 15° C | 87% | 1010.5 hPa | - | - | - | - |
| 1777962303 | 13.89° C | 89% | 1010.4 hPa | - | - | - | - |
| 1777961702 | 13.89° C | 91% | 1010.4 hPa | - | - | - | - |
| 1777961103 | 13.33° C | 93% | 1010.4 hPa | - | - | - | - |
| 1777960503 | 12.78° C | 94% | 1010.5 hPa | - | - | - | - |
| 1777959905 | 12.78° C | 93% | 1011.1 hPa | - | - | - | - |
| 1777958705 | 12.78° C | 86% | 1011.1 hPa | - | - | - | - |
| 1777958109 | 13.33° C | 82% | 1011.6 hPa | - | - | - | - |
| 1777957513 | 13.33° C | 80% | 1011.7 hPa | - | - | - | - |
| 1777956904 | 13.33° C | 78% | 1011.6 hPa | - | - | - | - |
| 1777956304 | 13.33° C | 78% | 1011.5 hPa | - | - | - | - |
| 1777955705 | 13.33° C | 78% | 1011.4 hPa | - | - | - | - |
| 1777955105 | 13.33° C | 77% | 1011.3 hPa | - | - | - | - |
| 1777954504 | 13.33° C | 75% | 1011.2 hPa | - | - | - | - |
* Rain since midnight (hover to see other rain measurements)
** Current wind speed in m/s (hover to see current wind gust speed)